Burbank, CA (91508)

9:58 AM PDT on September 03, 2015 (GMT -0700)
Magnolia Park | | Change Station
CLOSE
Current Station
Personal Weather Station
Location: Burbank, CA
Elevation: 556 ft
Nearby Weather Stations

Elev 556 ft 34.17 °N, 118.33 °W | Updated 13 minutes ago

Overcast
Overcast
69.2 °F
Feels Like 69.2 °F
N
3.0
Wind Variable Wind from SSE
Gusts 7.0 mph

Today
High -- | Low -- °F
--% Chance of Precip.
Yesterday
High -- | Low -- °F
Precip. -- in
6:28 AM 7:16 PM
Waning Gibbous, 69% visible
Pressure 29.91 in
Visibility 10.0 miles
Clouds Mostly Cloudy 2000 ft
Overcast 2700 ft
Dew Point 60 °F
Humidity 72%
Rainfall 0.00 in
Snow Depth Not available.
UV 2 out of 12
Pollen 7.80 out of 12
Air Quality Not available.
Flu Activity Not available.
METAR KBUR 031653Z 15008KT 10SM BKN020 OVC027 21/14 A2994 RMK AO2 SLP128 T02060139
Pressure 29.91 in
Visibility 10.0 miles
Clouds Mostly Cloudy 2000 ft
Overcast 2700 ft
Dew Point 60 °F
Humidity 72%
Rainfall 0.00 in
Snow Depth Not available.
UV 2 out of 12
Pollen 7.80 out of 12
Air Quality Not available.
Flu Activity Not available.
METAR KBUR 031653Z 15008KT 10SM BKN020 OVC027 21/14 A2994 RMK AO2 SLP128 T02060139

10-Day Weather Forecast

×

Almanac

Astronomy

Sep. 03, 2015 Rise Set
Actual Time
Civil Twilight
Nautical Twilight
Astronomical Twilight
Moon
Length of Visible Light
Length of Day
Tomorrow will be .
, % of the Moon is Illuminated

Today's Extremes

State Highs State Lows

Community

WunderPhotos

Upload Photos

1,851,988 photos uploaded!

WunderBlogs® & News

Nearby

Air Quality

  Air Quality AQ Index Pollutant
Not available.

Snow Depth

Station Depth Elevation

Earthquake Activity

City Distance Mag. Time & Date
Minimum magnitude displayed is 2.5.

Coastal Water Temperatures

Place Temperature

Stations

Nearby Weather Stations

Station Location Temp. Windchill Dew Point Humidity Wind Precip. Elev Updated Type